»·PEaware :: DAL2437 KLAS-KSFO

DAL2437 :: KLAS-KSFO

FLIGHT INFORMATION

Flight Status: Arrived
Operator:
Delta Air Lines
More flights by this operator :: More flights under this callsign
Pilot: Miguel P. (25458)
Aircraft: BOEING 737-800
(B738)
More flights by this aircraft type
Origin: KLAS McCarran Intl
United States
Destination: KSFO San Francisco Intl
United States
More flights between these airports :: More routes between these airports
Route: SHEAD1 KENNO RUSME DYAMD5
File this flight plan on PilotEdge
Remarks:
Altitude:
(Current/Filed)
30,000ft
Speed:
(Current/Filed)
465kts
Departed: 11-Jul-19 07:31 PM
Arrived: 11-Jul-19 08:36 PM
Distance/Time
Traveled:
359nm/1:05
Distance/Time
To Go:
Arrived

Flight Plot

Page will automatically refresh every two minutes.

Flight plan parsing failed; only flown route is shown


Map Options




Map Legend


Flown Route
Filed Route
Departure Airport
Arrival Airport
Navaid (VOR, NDB)
Fix

Horizontal Profiles

Position Reports

Time Latitude Longitude Heading Altitude Ground
Speed
11-Jul-19 18:59 36.081008 -115.147653 61 2099ft 0kts
11-Jul-19 19:00 36.081008 -115.147653 61 2099ft 0kts
11-Jul-19 19:01 36.081008 -115.147653 61 2099ft 0kts
11-Jul-19 19:02 36.081008 -115.147653 61 2099ft 0kts
11-Jul-19 19:03 36.081008 -115.147653 61 2099ft 0kts
11-Jul-19 19:03 36.081008 -115.147653 61 2099ft 0kts
11-Jul-19 19:05 36.081008 -115.147653 61 2099ft 0kts
11-Jul-19 19:06 36.081008 -115.147653 61 2099ft 0kts
11-Jul-19 19:06 36.081008 -115.147653 61 2099ft 0kts
11-Jul-19 19:07 36.081008 -115.147653 61 2099ft 0kts
11-Jul-19 19:09 36.081008 -115.147653 61 2099ft 0kts
11-Jul-19 19:09 36.081008 -115.147653 61 2099ft 0kts
11-Jul-19 19:10 36.081008 -115.147653 61 2099ft 0kts
11-Jul-19 19:11 36.081008 -115.147653 61 2099ft 0kts
11-Jul-19 19:12 36.081008 -115.147653 61 2099ft 0kts
11-Jul-19 19:13 36.081008 -115.147653 61 2099ft 0kts
11-Jul-19 19:14 36.081008 -115.147653 61 2099ft 0kts
11-Jul-19 19:15 36.081008 -115.147653 61 2099ft 0kts
11-Jul-19 19:16 36.080946 -115.148125 102 2101ft 2kts
11-Jul-19 19:17 36.081321 -115.148653 159 2102ft 2kts
11-Jul-19 19:18 36.081430 -115.148708 155 2102ft 0kts
11-Jul-19 19:19 36.081430 -115.148707 155 2102ft 0kts
11-Jul-19 19:20 36.079033 -115.147394 155 2102ft 0kts
11-Jul-19 19:21 36.079033 -115.147394 155 2102ft 0kts
11-Jul-19 19:22 36.079033 -115.147394 155 2102ft 0kts
11-Jul-19 19:23 36.078806 -115.147303 169 2103ft 8kts
11-Jul-19 19:24 36.078064 -115.153012 262 2124ft 28kts
11-Jul-19 19:25 36.078579 -115.162798 16 2158ft 16kts
11-Jul-19 19:26 36.083371 -115.160064 30 2138ft 23kts
11-Jul-19 19:27 36.089802 -115.156249 22 2109ft 19kts
11-Jul-19 19:28 36.094273 -115.153840 24 2090ft 35kts
11-Jul-19 19:29 36.097851 -115.152336 315 2078ft 6kts
11-Jul-19 19:30 36.089447 -115.158769 204 2119ft 129kts
11-Jul-19 19:31 36.047195 -115.184508 204 3553ft 197kts
11-Jul-19 19:32 36.001983 -115.229784 241 5538ft 229kts
11-Jul-19 19:33 35.969953 -115.303004 231 7014ft 265kts
11-Jul-19 19:34 35.915226 -115.369429 223 7786ft 262kts
11-Jul-19 19:35 35.885951 -115.445702 267 9687ft 263kts
11-Jul-19 19:36 35.888352 -115.542214 269 10938ft 308kts
11-Jul-19 19:37 35.890675 -115.656964 269 11009ft 338kts
11-Jul-19 19:38 35.892631 -115.774887 269 12979ft 346kts
11-Jul-19 19:39 35.894635 -115.896110 269 15450ft 358kts
11-Jul-19 19:40 35.929162 -116.010100 312 17740ft 376kts
11-Jul-19 19:41 36.007381 -116.099336 315 19984ft 387kts
11-Jul-19 19:42 36.087212 -116.191333 315 22106ft 398kts
11-Jul-19 19:43 36.169232 -116.286099 315 24023ft 408kts
11-Jul-19 19:44 36.254718 -116.385180 315 25133ft 436kts
11-Jul-19 19:45 36.345174 -116.490327 315 26580ft 452kts
11-Jul-19 19:46 36.437582 -116.598113 316 28211ft 459kts
11-Jul-19 19:47 36.530700 -116.707696 315 29992ft 459kts
11-Jul-19 19:48 36.637181 -116.803700 328 30027ft 483kts
11-Jul-19 19:49 36.751236 -116.890068 327 30028ft 482kts
11-Jul-19 19:50 36.865470 -116.977155 327 30037ft 480kts
11-Jul-19 19:51 36.979778 -117.064593 327 30048ft 480kts
11-Jul-19 19:52 37.093761 -117.152095 327 30056ft 479kts
11-Jul-19 19:53 37.207568 -117.239773 327 30090ft 479kts
11-Jul-19 19:54 37.319268 -117.331300 318 30149ft 477kts
11-Jul-19 19:55 37.420507 -117.440921 318 30136ft 477kts
11-Jul-19 19:56 37.495238 -117.575910 285 30143ft 472kts
11-Jul-19 19:57 37.512488 -117.740248 274 30137ft 470kts
11-Jul-19 19:58 37.525832 -117.904945 274 30135ft 470kts
11-Jul-19 19:59 37.538967 -118.069050 274 30129ft 469kts
11-Jul-19 20:00 37.551894 -118.233474 274 30128ft 469kts
11-Jul-19 20:01 37.564708 -118.398339 274 30127ft 469kts
11-Jul-19 20:02 37.577129 -118.562746 274 30127ft 468kts
11-Jul-19 20:03 37.589246 -118.726008 273 30128ft 468kts
11-Jul-19 20:04 37.601141 -118.888993 273 30131ft 467kts
11-Jul-19 20:05 37.612848 -119.052856 273 30137ft 466kts
11-Jul-19 20:06 37.624334 -119.216509 273 30137ft 465kts
11-Jul-19 20:07 37.635552 -119.379583 273 30136ft 464kts
11-Jul-19 20:08 37.646577 -119.543180 273 30136ft 463kts
11-Jul-19 20:09 37.657307 -119.705845 272 30128ft 462kts
11-Jul-19 20:10 37.667799 -119.868343 272 30129ft 461kts
11-Jul-19 20:11 37.678026 -120.029941 272 29762ft 447kts
11-Jul-19 20:12 37.687464 -120.183741 272 28868ft 437kts
11-Jul-19 20:13 37.696770 -120.337536 272 28363ft 434kts
11-Jul-19 20:14 37.689521 -120.488280 260 26984ft 423kts
11-Jul-19 20:15 37.672377 -120.634809 260 25263ft 414kts
11-Jul-19 20:16 37.655785 -120.775225 259 23990ft 390kts
11-Jul-19 20:17 37.639122 -120.912773 259 22660ft 390kts
11-Jul-19 20:18 37.622092 -121.045264 258 20662ft 377kts
11-Jul-19 20:19 37.604718 -121.174860 258 18649ft 368kts
11-Jul-19 20:20 37.588226 -121.300682 260 16641ft 358kts
11-Jul-19 20:21 37.574425 -121.422540 260 15592ft 342kts
11-Jul-19 20:22 37.560741 -121.540667 260 13056ft 333kts
11-Jul-19 20:23 37.545344 -121.649939 252 11561ft 295kts
11-Jul-19 20:24 37.521257 -121.748618 252 9236ft 291kts
11-Jul-19 20:25 37.498648 -121.842893 253 7679ft 261kts
11-Jul-19 20:26 37.477800 -121.924859 251 6937ft 218kts
11-Jul-19 20:27 37.463280 -122.001754 282 6056ft 225kts
11-Jul-19 20:28 37.489596 -122.068734 297 4744ft 203kts
11-Jul-19 20:29 37.514365 -122.126859 297 4026ft 175kts
11-Jul-19 20:30 37.536407 -122.179101 297 2982ft 158kts
11-Jul-19 20:31 37.557404 -122.228452 294 1790ft 160kts
11-Jul-19 20:32 37.577759 -122.277697 296 1469ft 156kts
11-Jul-19 20:33 37.597683 -122.325023 296 669ft 153kts
11-Jul-19 20:34 37.617190 -122.371578 295 12ft 118kts
11-Jul-19 20:35 37.619407 -122.376976 295 20ft 0kts

Navigation Log

Ident Type
Flight plan parsing failed, navigation log unavailable